sensor_id;sensor_type;location;lat;lon;timestamp;temperature;humidity
16999;DHT22;10211;49.476;11.010;2023-04-07T00:01:23;1.50;99.90
16999;DHT22;10211;49.476;11.010;2023-04-07T00:03:50;1.50;99.90
16999;DHT22;10211;49.476;11.010;2023-04-07T00:06:16;1.50;99.90
16999;DHT22;10211;49.476;11.010;2023-04-07T00:08:43;1.40;99.90
16999;DHT22;10211;49.476;11.010;2023-04-07T00:11:10;1.40;99.90
16999;DHT22;10211;49.476;11.010;2023-04-07T00:13:38;1.40;99.90
16999;DHT22;10211;49.476;11.010;2023-04-07T00:16:05;1.40;99.90
16999;DHT22;10211;49.476;11.010;2023-04-07T00:18:31;1.40;99.90
16999;DHT22;10211;49.476;11.010;2023-04-07T00:20:58;1.40;99.90
16999;DHT22;10211;49.476;11.010;2023-04-07T00:23:25;1.40;99.90
16999;DHT22;10211;49.476;11.010;2023-04-07T00:25:52;1.40;99.90
16999;DHT22;10211;49.476;11.010;2023-04-07T00:28:19;1.30;99.90
16999;DHT22;10211;49.476;11.010;2023-04-07T00:30:47;1.30;99.90
16999;DHT22;10211;49.476;11.010;2023-04-07T00:33:14;1.30;99.90
16999;DHT22;10211;49.476;11.010;2023-04-07T00:35:40;1.30;99.90
16999;DHT22;10211;49.476;11.010;2023-04-07T00:38:10;1.30;99.90
16999;DHT22;10211;49.476;11.010;2023-04-07T00:40:37;1.40;99.90
16999;DHT22;10211;49.476;11.010;2023-04-07T00:43:04;1.40;99.90
16999;DHT22;10211;49.476;11.010;2023-04-07T00:45:31;1.40;99.90
16999;DHT22;10211;49.476;11.010;2023-04-07T00:47:59;1.50;99.90
16999;DHT22;10211;49.476;11.010;2023-04-07T00:50:26;1.50;99.90
16999;DHT22;10211;49.476;11.010;2023-04-07T00:52:52;1.50;99.90
16999;DHT22;10211;49.476;11.010;2023-04-07T00:55:21;1.50;99.90
16999;DHT22;10211;49.476;11.010;2023-04-07T00:57:48;1.60;99.90
16999;DHT22;10211;49.476;11.010;2023-04-07T01:00:15;1.70;99.90
16999;DHT22;10211;49.476;11.010;2023-04-07T01:02:46;1.70;99.90
16999;DHT22;10211;49.476;11.010;2023-04-07T01:05:19;1.70;99.90
16999;DHT22;10211;49.476;11.010;2023-04-07T01:07:54;1.70;99.90
16999;DHT22;10211;49.476;11.010;2023-04-07T01:10:27;1.70;99.90
16999;DHT22;10211;49.476;11.010;2023-04-07T01:13:00;1.80;99.90
16999;DHT22;10211;49.476;11.010;2023-04-07T01:15:29;1.80;99.90
16999;DHT22;10211;49.476;11.010;2023-04-07T01:18:00;1.90;99.90
16999;DHT22;10211;49.476;11.010;2023-04-07T01:20:32;2.00;99.90
16999;DHT22;10211;49.476;11.010;2023-04-07T01:23:03;2.10;99.90
16999;DHT22;10211;49.476;11.010;2023-04-07T01:25:55;2.10;99.90
16999;DHT22;10211;49.476;11.010;2023-04-07T01:28:39;2.20;99.90
16999;DHT22;10211;49.476;11.010;2023-04-07T01:31:08;2.20;99.90
16999;DHT22;10211;49.476;11.010;2023-04-07T01:33:36;2.30;99.90
16999;DHT22;10211;49.476;11.010;2023-04-07T01:36:05;2.30;99.90
16999;DHT22;10211;49.476;11.010;2023-04-07T01:38:32;2.20;99.90
16999;DHT22;10211;49.476;11.010;2023-04-07T01:41:01;2.20;99.90
16999;DHT22;10211;49.476;11.010;2023-04-07T01:43:29;2.20;99.90
16999;DHT22;10211;49.476;11.010;2023-04-07T01:45:56;2.20;99.90
16999;DHT22;10211;49.476;11.010;2023-04-07T01:48:25;2.20;99.90
16999;DHT22;10211;49.476;11.010;2023-04-07T01:50:53;2.10;99.90
16999;DHT22;10211;49.476;11.010;2023-04-07T01:53:20;2.10;99.90
16999;DHT22;10211;49.476;11.010;2023-04-07T01:55:48;2.00;99.90
16999;DHT22;10211;49.476;11.010;2023-04-07T01:58:16;2.00;99.90
16999;DHT22;10211;49.476;11.010;2023-04-07T02:00:42;1.90;99.90
16999;DHT22;10211;49.476;11.010;2023-04-07T02:03:12;1.90;99.90
16999;DHT22;10211;49.476;11.010;2023-04-07T02:05:47;1.90;99.90
16999;DHT22;10211;49.476;11.010;2023-04-07T02:08:16;1.80;99.90
16999;DHT22;10211;49.476;11.010;2023-04-07T02:10:45;1.80;99.90
16999;DHT22;10211;49.476;11.010;2023-04-07T02:13:16;1.80;99.90
16999;DHT22;10211;49.476;11.010;2023-04-07T02:15:44;1.80;99.90
16999;DHT22;10211;49.476;11.010;2023-04-07T02:18:12;1.80;99.90
16999;DHT22;10211;49.476;11.010;2023-04-07T02:20:41;1.80;99.90
16999;DHT22;10211;49.476;11.010;2023-04-07T02:23:11;1.80;99.90
16999;DHT22;10211;49.476;11.010;2023-04-07T02:25:37;1.80;99.90
16999;DHT22;10211;49.476;11.010;2023-04-07T02:28:05;1.80;99.90
16999;DHT22;10211;49.476;11.010;2023-04-07T02:30:32;1.90;99.90
16999;DHT22;10211;49.476;11.010;2023-04-07T02:32:59;1.80;99.90
16999;DHT22;10211;49.476;11.010;2023-04-07T02:35:25;1.80;99.90
16999;DHT22;10211;49.476;11.010;2023-04-07T02:37:52;1.80;99.90
16999;DHT22;10211;49.476;11.010;2023-04-07T02:40:20;1.70;99.90
16999;DHT22;10211;49.476;11.010;2023-04-07T02:42:47;1.70;99.90
16999;DHT22;10211;49.476;11.010;2023-04-07T02:45:13;1.70;99.90
16999;DHT22;10211;49.476;11.010;2023-04-07T02:47:40;1.70;99.90
16999;DHT22;10211;49.476;11.010;2023-04-07T02:50:08;1.70;99.90
16999;DHT22;10211;49.476;11.010;2023-04-07T02:52:34;1.60;99.90
16999;DHT22;10211;49.476;11.010;2023-04-07T02:55:02;1.70;99.90
16999;DHT22;10211;49.476;11.010;2023-04-07T02:57:30;1.70;99.90
16999;DHT22;10211;49.476;11.010;2023-04-07T03:00:04;1.60;99.90
16999;DHT22;10211;49.476;11.010;2023-04-07T03:02:31;1.60;99.90
16999;DHT22;10211;49.476;11.010;2023-04-07T03:04:58;1.60;99.90
16999;DHT22;10211;49.476;11.010;2023-04-07T03:07:24;1.60;99.90
16999;DHT22;10211;49.476;11.010;2023-04-07T03:09:51;1.60;99.90
16999;DHT22;10211;49.476;11.010;2023-04-07T03:12:18;1.70;99.90
16999;DHT22;10211;49.476;11.010;2023-04-07T03:14:46;1.70;99.90
16999;DHT22;10211;49.476;11.010;2023-04-07T03:17:13;1.70;99.90
16999;DHT22;10211;49.476;11.010;2023-04-07T03:19:39;1.70;99.90
16999;DHT22;10211;49.476;11.010;2023-04-07T03:22:06;1.70;99.90
16999;DHT22;10211;49.476;11.010;2023-04-07T03:24:33;1.80;99.90
16999;DHT22;10211;49.476;11.010;2023-04-07T03:26:59;1.80;99.90
16999;DHT22;10211;49.476;11.010;2023-04-07T03:29:26;1.90;99.90
16999;DHT22;10211;49.476;11.010;2023-04-07T03:31:54;1.90;99.90
16999;DHT22;10211;49.476;11.010;2023-04-07T03:34:21;1.90;99.90
16999;DHT22;10211;49.476;11.010;2023-04-07T03:36:48;2.00;99.90
16999;DHT22;10211;49.476;11.010;2023-04-07T03:39:15;2.00;99.90
16999;DHT22;10211;49.476;11.010;2023-04-07T03:41:43;2.00;99.90
16999;DHT22;10211;49.476;11.010;2023-04-07T03:44:09;2.00;99.90
16999;DHT22;10211;49.476;11.010;2023-04-07T03:46:36;2.10;99.90
16999;DHT22;10211;49.476;11.010;2023-04-07T03:49:04;2.10;99.90
16999;DHT22;10211;49.476;11.010;2023-04-07T03:51:31;2.10;99.90
16999;DHT22;10211;49.476;11.010;2023-04-07T03:53:58;2.20;99.90
16999;DHT22;10211;49.476;11.010;2023-04-07T03:56:25;2.20;99.90
16999;DHT22;10211;49.476;11.010;2023-04-07T03:58:52;2.20;99.90
16999;DHT22;10211;49.476;11.010;2023-04-07T04:01:18;2.20;99.90
16999;DHT22;10211;49.476;11.010;2023-04-07T04:03:46;2.20;99.90
16999;DHT22;10211;49.476;11.010;2023-04-07T04:06:14;2.20;99.90
16999;DHT22;10211;49.476;11.010;2023-04-07T04:08:40;2.20;99.90
16999;DHT22;10211;49.476;11.010;2023-04-07T04:11:07;2.30;99.90
16999;DHT22;10211;49.476;11.010;2023-04-07T04:13:33;2.30;99.90
16999;DHT22;10211;49.476;11.010;2023-04-07T04:16:00;2.30;99.90
16999;DHT22;10211;49.476;11.010;2023-04-07T04:18:27;2.30;99.90
16999;DHT22;10211;49.476;11.010;2023-04-07T04:20:54;2.20;99.90
16999;DHT22;10211;49.476;11.010;2023-04-07T04:23:22;2.20;99.90
16999;DHT22;10211;49.476;11.010;2023-04-07T04:25:49;2.20;99.90
16999;DHT22;10211;49.476;11.010;2023-04-07T04:28:16;2.20;99.90
16999;DHT22;10211;49.476;11.010;2023-04-07T04:30:42;2.20;99.90
16999;DHT22;10211;49.476;11.010;2023-04-07T04:33:09;2.20;99.90
16999;DHT22;10211;49.476;11.010;2023-04-07T04:35:36;2.20;99.90
16999;DHT22;10211;49.476;11.010;2023-04-07T04:38:02;2.20;99.90
16999;DHT22;10211;49.476;11.010;2023-04-07T04:40:30;2.20;99.90
16999;DHT22;10211;49.476;11.010;2023-04-07T04:42:57;2.30;99.90
16999;DHT22;10211;49.476;11.010;2023-04-07T04:45:24;2.30;99.90
16999;DHT22;10211;49.476;11.010;2023-04-07T04:47:51;2.30;99.90
16999;DHT22;10211;49.476;11.010;2023-04-07T04:50:17;2.40;99.90
16999;DHT22;10211;49.476;11.010;2023-04-07T04:52:44;2.40;99.90
16999;DHT22;10211;49.476;11.010;2023-04-07T04:55:11;2.50;99.90
16999;DHT22;10211;49.476;11.010;2023-04-07T04:57:39;2.60;99.90
16999;DHT22;10211;49.476;11.010;2023-04-07T05:00:07;2.70;99.90
16999;DHT22;10211;49.476;11.010;2023-04-07T05:02:35;2.80;99.90
16999;DHT22;10211;49.476;11.010;2023-04-07T05:05:01;3.00;99.90
16999;DHT22;10211;49.476;11.010;2023-04-07T05:07:28;3.10;99.90
16999;DHT22;10211;49.476;11.010;2023-04-07T05:09:55;3.20;99.90
16999;DHT22;10211;49.476;11.010;2023-04-07T05:12:22;3.40;99.90
16999;DHT22;10211;49.476;11.010;2023-04-07T05:14:50;3.60;99.90
16999;DHT22;10211;49.476;11.010;2023-04-07T05:17:17;3.90;99.90
16999;DHT22;10211;49.476;11.010;2023-04-07T05:19:43;4.30;99.90
16999;DHT22;10211;49.476;11.010;2023-04-07T05:22:10;4.70;99.90
16999;DHT22;10211;49.476;11.010;2023-04-07T05:24:37;5.00;99.90
16999;DHT22;10211;49.476;11.010;2023-04-07T05:27:03;5.20;99.90
16999;DHT22;10211;49.476;11.010;2023-04-07T05:29:30;5.20;99.90
16999;DHT22;10211;49.476;11.010;2023-04-07T05:31:58;5.20;99.90
16999;DHT22;10211;49.476;11.010;2023-04-07T05:34:26;5.20;99.90
16999;DHT22;10211;49.476;11.010;2023-04-07T05:36:52;5.30;99.90
16999;DHT22;10211;49.476;11.010;2023-04-07T05:39:19;5.60;99.90
16999;DHT22;10211;49.476;11.010;2023-04-07T05:41:46;5.70;98.50
16999;DHT22;10211;49.476;11.010;2023-04-07T05:44:12;5.70;98.20
16999;DHT22;10211;49.476;11.010;2023-04-07T05:46:39;5.90;97.60
16999;DHT22;10211;49.476;11.010;2023-04-07T05:49:07;6.20;97.20
16999;DHT22;10211;49.476;11.010;2023-04-07T05:51:34;6.40;96.50
16999;DHT22;10211;49.476;11.010;2023-04-07T05:54:01;6.50;95.60
16999;DHT22;10211;49.476;11.010;2023-04-07T05:56:28;6.60;94.70
16999;DHT22;10211;49.476;11.010;2023-04-07T05:58:55;6.70;94.60
16999;DHT22;10211;49.476;11.010;2023-04-07T06:01:23;6.80;94.50
16999;DHT22;10211;49.476;11.010;2023-04-07T06:03:50;6.90;93.60
16999;DHT22;10211;49.476;11.010;2023-04-07T06:06:18;6.90;93.10
16999;DHT22;10211;49.476;11.010;2023-04-07T06:08:44;7.00;93.10
16999;DHT22;10211;49.476;11.010;2023-04-07T06:11:11;7.00;92.20
16999;DHT22;10211;49.476;11.010;2023-04-07T06:13:38;7.10;91.90
16999;DHT22;10211;49.476;11.010;2023-04-07T06:16:05;7.10;91.40
16999;DHT22;10211;49.476;11.010;2023-04-07T06:18:32;7.20;91.10
16999;DHT22;10211;49.476;11.010;2023-04-07T06:20:58;7.30;90.40
16999;DHT22;10211;49.476;11.010;2023-04-07T06:23:26;7.40;90.40
16999;DHT22;10211;49.476;11.010;2023-04-07T06:25:53;7.70;89.50
16999;DHT22;10211;49.476;11.010;2023-04-07T06:28:20;7.90;89.60
16999;DHT22;10211;49.476;11.010;2023-04-07T06:30:46;8.00;87.20
16999;DHT22;10211;49.476;11.010;2023-04-07T06:33:13;8.00;87.80
16999;DHT22;10211;49.476;11.010;2023-04-07T06:35:40;8.30;87.80
16999;DHT22;10211;49.476;11.010;2023-04-07T06:38:07;8.60;86.20
16999;DHT22;10211;49.476;11.010;2023-04-07T06:40:37;9.20;84.60
16999;DHT22;10211;49.476;11.010;2023-04-07T06:43:03;9.90;82.00
16999;DHT22;10211;49.476;11.010;2023-04-07T06:45:30;10.40;80.30
16999;DHT22;10211;49.476;11.010;2023-04-07T06:47:57;10.70;79.10
16999;DHT22;10211;49.476;11.010;2023-04-07T06:50:24;10.70;79.00
16999;DHT22;10211;49.476;11.010;2023-04-07T06:52:50;10.60;77.00
16999;DHT22;10211;49.476;11.010;2023-04-07T06:55:17;10.60;77.00
16999;DHT22;10211;49.476;11.010;2023-04-07T06:57:45;10.80;76.50
16999;DHT22;10211;49.476;11.010;2023-04-07T07:00:12;11.00;74.50
16999;DHT22;10211;49.476;11.010;2023-04-07T07:02:39;11.40;74.00
16999;DHT22;10211;49.476;11.010;2023-04-07T07:05:06;11.50;72.60
16999;DHT22;10211;49.476;11.010;2023-04-07T07:07:33;11.50;72.20
16999;DHT22;10211;49.476;11.010;2023-04-07T07:10:00;11.50;71.50
16999;DHT22;10211;49.476;11.010;2023-04-07T07:12:26;11.50;72.20
16999;DHT22;10211;49.476;11.010;2023-04-07T07:14:54;11.60;71.80
16999;DHT22;10211;49.476;11.010;2023-04-07T07:17:21;11.90;70.70
16999;DHT22;10211;49.476;11.010;2023-04-07T07:19:48;12.10;70.20
16999;DHT22;10211;49.476;11.010;2023-04-07T07:22:15;12.30;69.30
16999;DHT22;10211;49.476;11.010;2023-04-07T07:24:41;12.50;69.30
16999;DHT22;10211;49.476;11.010;2023-04-07T07:27:08;12.70;69.10
16999;DHT22;10211;49.476;11.010;2023-04-07T07:29:35;13.00;68.00
16999;DHT22;10211;49.476;11.010;2023-04-07T07:32:03;13.10;66.00
16999;DHT22;10211;49.476;11.010;2023-04-07T07:34:30;13.70;66.00
16999;DHT22;10211;49.476;11.010;2023-04-07T07:36:57;14.20;63.10
16999;DHT22;10211;49.476;11.010;2023-04-07T07:39:24;14.60;61.90
16999;DHT22;10211;49.476;11.010;2023-04-07T07:41:51;14.60;61.00
16999;DHT22;10211;49.476;11.010;2023-04-07T07:44:17;15.00;61.80
16999;DHT22;10211;49.476;11.010;2023-04-07T07:46:47;14.90;60.10
16999;DHT22;10211;49.476;11.010;2023-04-07T07:49:15;14.30;61.10
16999;DHT22;10211;49.476;11.010;2023-04-07T07:51:43;13.70;62.30
16999;DHT22;10211;49.476;11.010;2023-04-07T07:54:10;13.50;63.30
16999;DHT22;10211;49.476;11.010;2023-04-07T07:56:37;13.60;64.60
16999;DHT22;10211;49.476;11.010;2023-04-07T07:59:04;13.80;63.70
16999;DHT22;10211;49.476;11.010;2023-04-07T08:01:31;14.20;63.20
16999;DHT22;10211;49.476;11.010;2023-04-07T08:03:58;14.50;63.20
16999;DHT22;10211;49.476;11.010;2023-04-07T08:06:26;14.80;62.70
16999;DHT22;10211;49.476;11.010;2023-04-07T08:08:53;14.80;61.80
16999;DHT22;10211;49.476;11.010;2023-04-07T08:11:20;14.90;62.30
16999;DHT22;10211;49.476;11.010;2023-04-07T08:13:47;15.00;61.60
16999;DHT22;10211;49.476;11.010;2023-04-07T08:16:14;15.00;62.20
16999;DHT22;10211;49.476;11.010;2023-04-07T08:18:41;15.10;61.70
16999;DHT22;10211;49.476;11.010;2023-04-07T08:21:07;15.10;61.50
16999;DHT22;10211;49.476;11.010;2023-04-07T08:23:35;15.30;61.90
16999;DHT22;10211;49.476;11.010;2023-04-07T08:26:02;15.50;60.80
16999;DHT22;10211;49.476;11.010;2023-04-07T08:28:29;15.70;61.20
16999;DHT22;10211;49.476;11.010;2023-04-07T08:30:56;16.00;59.70
16999;DHT22;10211;49.476;11.010;2023-04-07T08:33:22;16.30;59.20
16999;DHT22;10211;49.476;11.010;2023-04-07T08:35:49;16.30;58.70
16999;DHT22;10211;49.476;11.010;2023-04-07T08:38:16;16.30;58.40
16999;DHT22;10211;49.476;11.010;2023-04-07T08:40:44;16.30;58.20
16999;DHT22;10211;49.476;11.010;2023-04-07T08:43:12;16.30;58.50
16999;DHT22;10211;49.476;11.010;2023-04-07T08:45:40;16.30;58.70
16999;DHT22;10211;49.476;11.010;2023-04-07T08:48:12;16.00;59.70
16999;DHT22;10211;49.476;11.010;2023-04-07T08:50:43;15.80;60.00
16999;DHT22;10211;49.476;11.010;2023-04-07T08:53:12;15.70;60.60
16999;DHT22;10211;49.476;11.010;2023-04-07T08:55:40;15.60;60.40
16999;DHT22;10211;49.476;11.010;2023-04-07T08:58:09;15.60;60.40
16999;DHT22;10211;49.476;11.010;2023-04-07T09:00:38;15.60;61.40
16999;DHT22;10211;49.476;11.010;2023-04-07T09:03:06;15.80;60.70
16999;DHT22;10211;49.476;11.010;2023-04-07T09:05:34;16.00;60.40
16999;DHT22;10211;49.476;11.010;2023-04-07T09:08:01;16.20;59.80
16999;DHT22;10211;49.476;11.010;2023-04-07T09:10:28;16.00;59.30
16999;DHT22;10211;49.476;11.010;2023-04-07T09:12:57;16.10;59.90
16999;DHT22;10211;49.476;11.010;2023-04-07T09:15:27;16.10;59.70
16999;DHT22;10211;49.476;11.010;2023-04-07T09:17:56;15.80;59.90
16999;DHT22;10211;49.476;11.010;2023-04-07T09:20:22;15.90;60.60
16999;DHT22;10211;49.476;11.010;2023-04-07T09:22:50;16.30;59.60
16999;DHT22;10211;49.476;11.010;2023-04-07T09:25:18;16.60;59.00
16999;DHT22;10211;49.476;11.010;2023-04-07T09:27:54;17.40;59.50
16999;DHT22;10211;49.476;11.010;2023-04-07T09:30:22;18.30;56.90
16999;DHT22;10211;49.476;11.010;2023-04-07T09:32:50;19.20;54.20
16999;DHT22;10211;49.476;11.010;2023-04-07T09:35:17;19.90;54.40
16999;DHT22;10211;49.476;11.010;2023-04-07T09:37:44;20.70;52.30
16999;DHT22;10211;49.476;11.010;2023-04-07T09:40:11;21.00;51.20
16999;DHT22;10211;49.476;11.010;2023-04-07T09:42:51;20.60;51.20
16999;DHT22;10211;49.476;11.010;2023-04-07T09:45:23;19.70;51.80
16999;DHT22;10211;49.476;11.010;2023-04-07T09:47:52;19.20;52.80
16999;DHT22;10211;49.476;11.010;2023-04-07T09:50:30;19.20;52.90
16999;DHT22;10211;49.476;11.010;2023-04-07T09:52:58;19.80;52.50
16999;DHT22;10211;49.476;11.010;2023-04-07T09:55:27;20.90;51.30
16999;DHT22;10211;49.476;11.010;2023-04-07T09:57:53;21.90;49.80
16999;DHT22;10211;49.476;11.010;2023-04-07T10:00:21;22.70;48.30
16999;DHT22;10211;49.476;11.010;2023-04-07T10:02:47;22.50;47.40
16999;DHT22;10211;49.476;11.010;2023-04-07T10:05:17;22.70;47.20
16999;DHT22;10211;49.476;11.010;2023-04-07T10:07:45;23.30;46.80
16999;DHT22;10211;49.476;11.010;2023-04-07T10:10:12;23.60;45.90
16999;DHT22;10211;49.476;11.010;2023-04-07T10:12:40;23.70;45.20
16999;DHT22;10211;49.476;11.010;2023-04-07T10:15:08;24.40;45.00
16999;DHT22;10211;49.476;11.010;2023-04-07T10:17:38;25.60;43.20
16999;DHT22;10211;49.476;11.010;2023-04-07T10:20:07;26.20;41.90
16999;DHT22;10211;49.476;11.010;2023-04-07T10:22:37;26.20;41.40
16999;DHT22;10211;49.476;11.010;2023-04-07T10:25:07;25.90;41.60
16999;DHT22;10211;49.476;11.010;2023-04-07T10:27:39;26.80;40.70
16999;DHT22;10211;49.476;11.010;2023-04-07T10:30:17;27.60;39.80
16999;DHT22;10211;49.476;11.010;2023-04-07T10:32:47;28.20;39.20
16999;DHT22;10211;49.476;11.010;2023-04-07T10:35:14;29.90;38.20
16999;DHT22;10211;49.476;11.010;2023-04-07T10:38:09;31.20;35.70
16999;DHT22;10211;49.476;11.010;2023-04-07T10:40:38;31.20;34.20
16999;DHT22;10211;49.476;11.010;2023-04-07T10:43:05;31.50;34.50
16999;DHT22;10211;49.476;11.010;2023-04-07T10:45:53;32.30;33.70
16999;DHT22;10211;49.476;11.010;2023-04-07T10:48:21;32.80;32.60
16999;DHT22;10211;49.476;11.010;2023-04-07T10:51:10;31.80;32.40
16999;DHT22;10211;49.476;11.010;2023-04-07T11:00:16;31.80;32.50
16999;DHT22;10211;49.476;11.010;2023-04-07T11:02:43;30.30;33.00
16999;DHT22;10211;49.476;11.010;2023-04-07T11:05:19;28.50;34.50
16999;DHT22;10211;49.476;11.010;2023-04-07T11:07:52;26.70;36.00
16999;DHT22;10211;49.476;11.010;2023-04-07T11:10:23;24.80;38.00
16999;DHT22;10211;49.476;11.010;2023-04-07T11:13:04;24.30;38.00
16999;DHT22;10211;49.476;11.010;2023-04-07T11:15:34;23.80;38.80
16999;DHT22;10211;49.476;11.010;2023-04-07T11:18:09;24.80;38.30
16999;DHT22;10211;49.476;11.010;2023-04-07T11:20:44;26.20;36.90
16999;DHT22;10211;49.476;11.010;2023-04-07T11:23:12;26.90;35.80
16999;DHT22;10211;49.476;11.010;2023-04-07T11:25:42;26.60;36.00
16999;DHT22;10211;49.476;11.010;2023-04-07T11:28:12;25.80;35.90
16999;DHT22;10211;49.476;11.010;2023-04-07T11:30:44;25.90;36.20
16999;DHT22;10211;49.476;11.010;2023-04-07T11:33:14;26.20;36.30
16999;DHT22;10211;49.476;11.010;2023-04-07T11:35:47;27.60;35.90
16999;DHT22;10211;49.476;11.010;2023-04-07T11:38:14;29.20;34.80
16999;DHT22;10211;49.476;11.010;2023-04-07T11:40:42;30.60;34.00
16999;DHT22;10211;49.476;11.010;2023-04-07T11:43:17;29.80;33.20
16999;DHT22;10211;49.476;11.010;2023-04-07T11:45:44;28.70;34.10
16999;DHT22;10211;49.476;11.010;2023-04-07T11:48:28;28.80;34.90
16999;DHT22;10211;49.476;11.010;2023-04-07T11:50:54;30.80;34.10
16999;DHT22;10211;49.476;11.010;2023-04-07T11:53:25;32.60;31.70
16999;DHT22;10211;49.476;11.010;2023-04-07T11:56:00;32.10;31.50
16999;DHT22;10211;49.476;11.010;2023-04-07T11:58:27;32.70;32.10
16999;DHT22;10211;49.476;11.010;2023-04-07T12:00:54;33.00;31.30
16999;DHT22;10211;49.476;11.010;2023-04-07T12:03:21;31.70;31.20
16999;DHT22;10211;49.476;11.010;2023-04-07T12:05:48;30.40;32.70
16999;DHT22;10211;49.476;11.010;2023-04-07T12:08:15;30.00;33.50
16999;DHT22;10211;49.476;11.010;2023-04-07T12:10:44;29.90;33.70
16999;DHT22;10211;49.476;11.010;2023-04-07T12:13:12;28.80;33.70
16999;DHT22;10211;49.476;11.010;2023-04-07T12:15:39;27.70;34.70
16999;DHT22;10211;49.476;11.010;2023-04-07T12:18:06;26.40;36.40
16999;DHT22;10211;49.476;11.010;2023-04-07T12:20:33;27.40;36.70
16999;DHT22;10211;49.476;11.010;2023-04-07T12:23:00;29.30;34.70
16999;DHT22;10211;49.476;11.010;2023-04-07T12:25:27;29.90;33.70
16999;DHT22;10211;49.476;11.010;2023-04-07T12:27:53;29.20;33.20
16999;DHT22;10211;49.476;11.010;2023-04-07T12:30:22;28.10;34.60
16999;DHT22;10211;49.476;11.010;2023-04-07T12:32:48;27.30;35.80
16999;DHT22;10211;49.476;11.010;2023-04-07T12:35:15;26.50;36.70
16999;DHT22;10211;49.476;11.010;2023-04-07T12:37:42;25.10;37.40
16999;DHT22;10211;49.476;11.010;2023-04-07T12:40:09;23.80;39.20
16999;DHT22;10211;49.476;11.010;2023-04-07T12:42:36;23.40;40.40
16999;DHT22;10211;49.476;11.010;2023-04-07T12:45:03;24.00;40.10
16999;DHT22;10211;49.476;11.010;2023-04-07T12:47:32;24.40;39.90
16999;DHT22;10211;49.476;11.010;2023-04-07T12:49:58;24.40;39.50
16999;DHT22;10211;49.476;11.010;2023-04-07T12:52:25;23.30;40.30
16999;DHT22;10211;49.476;11.010;2023-04-07T12:54:52;22.90;41.90
16999;DHT22;10211;49.476;11.010;2023-04-07T12:57:18;22.80;41.80
16999;DHT22;10211;49.476;11.010;2023-04-07T12:59:45;22.20;42.70
16999;DHT22;10211;49.476;11.010;2023-04-07T13:02:12;21.00;44.70
16999;DHT22;10211;49.476;11.010;2023-04-07T13:04:41;20.10;46.20
16999;DHT22;10211;49.476;11.010;2023-04-07T13:07:11;19.60;48.00
16999;DHT22;10211;49.476;11.010;2023-04-07T13:09:37;18.90;49.90
16999;DHT22;10211;49.476;11.010;2023-04-07T13:12:04;18.20;51.40
16999;DHT22;10211;49.476;11.010;2023-04-07T13:14:31;17.60;52.70
16999;DHT22;10211;49.476;11.010;2023-04-07T13:16:58;17.10;54.10
16999;DHT22;10211;49.476;11.010;2023-04-07T13:19:24;16.80;54.90
16999;DHT22;10211;49.476;11.010;2023-04-07T13:21:52;16.80;55.90
16999;DHT22;10211;49.476;11.010;2023-04-07T13:24:19;17.10;55.00
16999;DHT22;10211;49.476;11.010;2023-04-07T13:26:46;17.50;54.70
16999;DHT22;10211;49.476;11.010;2023-04-07T13:29:13;17.80;53.70
16999;DHT22;10211;49.476;11.010;2023-04-07T13:31:40;18.40;53.90
16999;DHT22;10211;49.476;11.010;2023-04-07T13:34:06;18.60;53.50
16999;DHT22;10211;49.476;11.010;2023-04-07T13:36:33;18.40;53.90
16999;DHT22;10211;49.476;11.010;2023-04-07T13:39:01;18.00;53.40
16999;DHT22;10211;49.476;11.010;2023-04-07T13:41:28;17.90;54.40
16999;DHT22;10211;49.476;11.010;2023-04-07T13:43:55;17.60;54.70
16999;DHT22;10211;49.476;11.010;2023-04-07T13:46:22;17.20;56.00
16999;DHT22;10211;49.476;11.010;2023-04-07T13:48:49;16.70;55.90
16999;DHT22;10211;49.476;11.010;2023-04-07T13:51:16;16.30;56.70
16999;DHT22;10211;49.476;11.010;2023-04-07T13:53:43;15.80;57.70
16999;DHT22;10211;49.476;11.010;2023-04-07T13:56:12;15.50;59.20
16999;DHT22;10211;49.476;11.010;2023-04-07T13:58:39;15.30;59.90
16999;DHT22;10211;49.476;11.010;2023-04-07T14:01:05;15.20;60.10
16999;DHT22;10211;49.476;11.010;2023-04-07T14:03:32;15.10;59.80
16999;DHT22;10211;49.476;11.010;2023-04-07T14:05:59;15.00;60.00
16999;DHT22;10211;49.476;11.010;2023-04-07T14:08:26;14.90;60.20
16999;DHT22;10211;49.476;11.010;2023-04-07T14:10:53;14.80;61.00
16999;DHT22;10211;49.476;11.010;2023-04-07T14:13:21;14.80;60.80
16999;DHT22;10211;49.476;11.010;2023-04-07T14:15:49;14.80;60.80
16999;DHT22;10211;49.476;11.010;2023-04-07T14:18:17;14.70;60.80
16999;DHT22;10211;49.476;11.010;2023-04-07T14:20:44;14.50;61.70
16999;DHT22;10211;49.476;11.010;2023-04-07T14:23:11;14.30;62.90
16999;DHT22;10211;49.476;11.010;2023-04-07T14:25:37;14.10;63.90
16999;DHT22;10211;49.476;11.010;2023-04-07T14:28:04;14.20;64.10
16999;DHT22;10211;49.476;11.010;2023-04-07T14:30:34;14.70;64.40
16999;DHT22;10211;49.476;11.010;2023-04-07T14:33:03;15.30;61.70
16999;DHT22;10211;49.476;11.010;2023-04-07T14:35:29;15.40;60.90
16999;DHT22;10211;49.476;11.010;2023-04-07T14:37:56;15.40;60.40
16999;DHT22;10211;49.476;11.010;2023-04-07T14:40:23;15.30;60.80
16999;DHT22;10211;49.476;11.010;2023-04-07T14:42:49;15.20;60.80
16999;DHT22;10211;49.476;11.010;2023-04-07T14:45:16;15.20;61.40
16999;DHT22;10211;49.476;11.010;2023-04-07T14:47:44;15.00;61.50
16999;DHT22;10211;49.476;11.010;2023-04-07T14:50:11;14.70;61.70
16999;DHT22;10211;49.476;11.010;2023-04-07T14:52:38;14.60;61.40
16999;DHT22;10211;49.476;11.010;2023-04-07T14:55:05;14.60;62.50
16999;DHT22;10211;49.476;11.010;2023-04-07T14:57:32;14.60;63.00
16999;DHT22;10211;49.476;11.010;2023-04-07T14:59:59;14.70;61.30
16999;DHT22;10211;49.476;11.010;2023-04-07T15:02:25;14.70;61.50
16999;DHT22;10211;49.476;11.010;2023-04-07T15:04:54;14.70;61.80
16999;DHT22;10211;49.476;11.010;2023-04-07T15:07:21;14.60;62.20
16999;DHT22;10211;49.476;11.010;2023-04-07T15:09:48;14.50;62.80
16999;DHT22;10211;49.476;11.010;2023-04-07T15:12:15;14.60;62.80
16999;DHT22;10211;49.476;11.010;2023-04-07T15:14:43;14.70;62.10
16999;DHT22;10211;49.476;11.010;2023-04-07T15:17:10;14.80;61.70
16999;DHT22;10211;49.476;11.010;2023-04-07T15:19:37;14.80;61.30
16999;DHT22;10211;49.476;11.010;2023-04-07T15:22:05;14.80;61.50
16999;DHT22;10211;49.476;11.010;2023-04-07T15:24:32;14.70;61.80
16999;DHT22;10211;49.476;11.010;2023-04-07T15:26:59;14.60;62.20
16999;DHT22;10211;49.476;11.010;2023-04-07T15:29:25;14.50;62.60
16999;DHT22;10211;49.476;11.010;2023-04-07T15:31:52;14.50;63.40
16999;DHT22;10211;49.476;11.010;2023-04-07T15:34:19;14.40;63.50